Time;durP1;ratioP1;P1;durP2;ratioP2;P2;SDS_P1;SDS_P2;PMS_P1;PMS_P2;Temp;Humidity;BMP_temperature;BMP_pressure;BME280_temperature;BME280_humidity;BME280_pressure;Samples;Min_cycle;Max_cycle;Signal;HPM_P1;HPM_P2
2021/08/09 00:01:09;;;;;;;11.05;3.60;;;;;;;14.84;76.50;100656.31;5148868;27;20064;-74
2021/08/09 00:03:35;;;;;;;10.13;3.72;;;;;;;14.94;76.71;100677.66;5136450;27;20043;-76
2021/08/09 00:06:03;;;;;;;10.60;3.75;;;;;;;14.85;76.78;100671.13;5135333;27;20039;-75
2021/08/09 00:08:29;;;;;;;10.95;3.65;;;;;;;14.80;77.03;100670.53;5137552;27;20043;-76
2021/08/09 00:10:55;;;;;;;11.13;4.00;;;;;;;14.76;77.05;100663.78;5139621;27;20414;-75
2021/08/09 00:13:20;;;;;;;8.40;2.90;;;;;;;14.89;76.55;100671.78;5154198;27;20035;-76
2021/08/09 00:15:46;;;;;;;12.43;3.55;;;;;;;14.78;76.53;100645.28;5144485;27;20051;-76
2021/08/09 00:18:12;;;;;;;12.27;3.45;;;;;;;14.95;76.17;100660.09;5129523;27;20039;-76
2021/08/09 00:20:38;;;;;;;11.50;3.25;;;;;;;15.04;76.13;100668.31;5135968;27;20058;-76
2021/08/09 00:23:04;;;;;;;9.93;3.15;;;;;;;15.03;76.14;100657.88;5135629;27;20059;-75
2021/08/09 00:25:30;;;;;;;8.43;3.28;;;;;;;15.09;75.75;100672.44;5134947;27;20467;-75
2021/08/09 00:27:56;;;;;;;10.45;3.63;;;;;;;15.10;76.08;100659.22;5130647;27;20061;-76
2021/08/09 00:30:22;;;;;;;11.50;4.18;;;;;;;15.12;75.62;100657.34;5134396;27;20517;-76
2021/08/09 00:32:49;;;;;;;12.40;3.00;;;;;;;14.91;75.96;100634.94;5133000;27;20047;-76
2021/08/09 00:35:15;;;;;;;10.68;3.45;;;;;;;15.01;75.56;100657.13;5134695;27;20043;-76
2021/08/09 00:37:41;;;;;;;16.85;3.35;;;;;;;15.07;76.15;100655.94;5133805;27;20042;-75
2021/08/09 00:40:08;;;;;;;12.57;3.40;;;;;;;15.01;75.99;100650.09;5134054;27;20502;-76
2021/08/09 00:42:36;;;;;;;11.05;3.25;;;;;;;14.86;76.13;100636.03;5134172;27;20502;-77
2021/08/09 00:45:02;;;;;;;8.98;3.30;;;;;;;15.02;76.20;100662.28;5134347;27;20043;-76
2021/08/09 00:47:28;;;;;;;9.02;3.33;;;;;;;15.01;75.75;100665.88;5130645;27;20039;-76
2021/08/09 00:49:54;;;;;;;10.35;2.60;;;;;;;14.94;76.13;100642.63;5132979;27;20499;-76
2021/08/09 00:52:22;;;;;;;10.85;3.92;;;;;;;14.95;75.70;100649.59;5133508;27;20047;-76
2021/08/09 00:54:49;;;;;;;8.02;2.60;;;;;;;14.88;75.80;100652.56;5134197;27;20043;-76
2021/08/09 00:57:15;;;;;;;9.55;2.80;;;;;;;14.88;75.59;100646.47;5132048;27;20506;-76
2021/08/09 00:59:41;;;;;;;9.90;3.38;;;;;;;14.69;75.72;100625.66;5133126;27;20432;-76
2021/08/09 01:02:08;;;;;;;12.93;2.95;;;;;;;14.81;75.60;100648.59;5133763;27;20038;-76
2021/08/09 01:04:34;;;;;;;11.52;2.42;;;;;;;14.78;75.91;100647.91;5118404;27;20054;-76
2021/08/09 01:07:01;;;;;;;12.20;3.03;;;;;;;14.72;75.70;100644.72;5113754;28;20048;-76
2021/08/09 01:09:38;;;;;;;9.45;2.67;;;;;;;14.73;75.69;100635.03;5127757;27;20099;-76
2021/08/09 01:12:06;;;;;;;10.63;3.47;;;;;;;14.80;75.83;100635.53;5134396;27;20047;-76
2021/08/09 01:14:51;;;;;;;11.90;2.72;;;;;;;14.82;75.75;100638.94;5134267;27;20044;-76
2021/08/09 01:17:21;;;;;;;13.35;3.22;;;;;;;14.85;75.84;100626.44;5132733;27;20043;-76
2021/08/09 01:20:19;;;;;;;6.63;2.60;;;;;;;14.94;75.53;100629.50;5133490;27;20499;-76
2021/08/09 01:22:55;;;;;;;9.65;2.53;;;;;;;14.95;75.22;100626.78;5133386;27;20062;-77
2021/08/09 01:25:38;;;;;;;10.00;2.67;;;;;;;14.81;75.33;100624.09;5134384;27;20059;-76
2021/08/09 01:28:07;;;;;;;11.27;2.55;;;;;;;14.69;75.78;100626.47;5131024;28;20043;-76
2021/08/09 01:30:35;;;;;;;12.95;3.25;;;;;;;14.58;76.14;100632.31;5133541;27;20048;-73
2021/08/09 01:33:01;;;;;;;10.75;2.63;;;;;;;14.54;76.18;100622.06;5131833;27;20111;-76
2021/08/09 01:35:28;;;;;;;10.43;2.97;;;;;;;14.47;76.22;100611.06;5119065;27;20035;-76
2021/08/09 01:37:57;;;;;;;11.73;3.00;;;;;;;14.56;76.42;100625.44;5132937;28;20407;-76
2021/08/09 01:40:25;;;;;;;7.82;2.90;;;;;;;14.39;76.79;100610.63;5124761;27;20047;-76
2021/08/09 01:42:51;;;;;;;6.85;2.70;;;;;;;14.44;76.83;100613.88;5126915;28;20043;-76
2021/08/09 01:45:20;;;;;;;13.90;3.40;;;;;;;14.41;77.00;100612.25;5133695;28;20046;-76
2021/08/09 01:47:48;;;;;;;11.68;3.42;;;;;;;14.46;77.03;100619.84;5132747;27;20051;-77
2021/08/09 01:50:15;;;;;;;8.80;3.05;;;;;;;14.45;77.05;100615.53;5127735;27;20051;-77
2021/08/09 01:52:43;;;;;;;8.15;2.70;;;;;;;14.51;77.20;100619.59;5113343;28;20043;-76
2021/08/09 01:55:13;;;;;;;8.88;2.65;;;;;;;14.49;77.03;100619.69;5132679;28;20047;-76
2021/08/09 01:57:40;;;;;;;8.05;2.28;;;;;;;14.47;77.34;100623.34;5133730;27;20051;-76
2021/08/09 02:00:10;;;;;;;9.90;3.20;;;;;;;14.48;77.45;100617.16;5132060;27;20407;-76
2021/08/09 02:02:37;;;;;;;8.80;2.65;;;;;;;14.48;77.59;100623.25;5129662;27;20040;-76
2021/08/09 02:05:06;;;;;;;11.02;2.80;;;;;;;14.40;77.53;100618.44;5137040;27;20065;-76
2021/08/09 02:07:34;;;;;;;7.70;2.47;;;;;;;14.40;78.06;100625.44;5136716;27;20051;-75
2021/08/09 02:10:03;;;;;;;9.63;2.40;;;;;;;14.33;78.10;100614.47;5136866;27;20119;-76
2021/08/09 02:12:29;;;;;;;7.95;2.10;;;;;;;14.43;77.82;100627.06;5136670;27;20047;-76
2021/08/09 02:14:58;;;;;;;9.82;3.00;;;;;;;14.51;77.82;100633.59;5136955;27;20059;-76
2021/08/09 02:17:40;;;;;;;9.98;2.85;;;;;;;14.52;77.76;100626.56;5136162;27;20062;-76
2021/08/09 02:20:24;;;;;;;9.10;2.65;;;;;;;14.41;77.80;100620.13;5148164;27;20047;-76
2021/08/09 02:22:53;;;;;;;;;;;;;;;14.36;78.19;100634.44;5152989;27;20051;-76
2021/08/09 02:25:23;;;;;;;8.85;2.13;;;;;;;14.41;78.10;100620.13;5127131;27;19927;-76
2021/08/09 02:27:54;;;;;;;8.20;2.13;;;;;;;14.43;77.62;100625.31;5131708;27;20047;-76
2021/08/09 02:30:24;;;;;;;6.30;2.45;;;;;;;14.49;77.50;100627.59;5129235;27;20058;-76
2021/08/09 02:32:53;;;;;;;10.05;3.05;;;;;;;14.54;77.57;100619.44;5131016;27;20096;-77
2021/08/09 02:35:22;;;;;;;8.68;2.45;;;;;;;14.58;77.34;100620.97;5136114;27;20043;-76
2021/08/09 02:37:49;;;;;;;7.47;2.15;;;;;;;14.64;77.50;100619.78;5136322;27;20065;-76
2021/08/09 02:40:17;;;;;;;5.60;2.47;;;;;;;14.59;78.77;100612.16;5136032;27;20051;-76
2021/08/09 02:42:44;;;;;;;8.70;3.13;;;;;;;14.60;78.80;100607.72;5116421;28;20066;-76
2021/08/09 02:45:11;;;;;;;4.53;1.75;;;;;;;14.53;79.16;100610.72;5131132;27;20435;-76
2021/08/09 02:47:41;;;;;;;7.32;2.17;;;;;;;14.25;79.32;100561.50;5126689;27;20403;-76
2021/08/09 02:50:11;;;;;;;7.68;2.45;;;;;;;14.52;79.42;100602.91;5134820;27;20047;-76
2021/08/09 02:52:39;;;;;;;8.05;2.40;;;;;;;14.48;80.06;100604.88;5134390;27;20483;-76
2021/08/09 02:55:08;;;;;;;7.15;2.15;;;;;;;14.50;79.98;100602.16;5136556;27;20039;-76
2021/08/09 02:57:35;;;;;;;8.00;2.70;;;;;;;14.27;80.21;100575.41;5136235;27;20082;-76
2021/08/09 03:00:02;;;;;;;7.53;2.42;;;;;;;14.39;80.71;100597.50;5125867;27;20044;-76
2021/08/09 03:02:30;;;;;;;6.72;2.00;;;;;;;14.38;81.40;100603.72;5116061;28;20048;-76
2021/08/09 03:04:57;;;;;;;6.30;1.90;;;;;;;14.16;81.75;100583.88;5123044;27;20085;-75
2021/08/09 03:07:25;;;;;;;4.53;1.80;;;;;;;14.19;82.07;100596.81;5136505;27;20045;-77
2021/08/09 03:09:51;;;;;;;4.78;2.30;;;;;;;14.21;81.98;100594.13;5133677;27;20043;-76
2021/08/09 03:12:18;;;;;;;5.53;1.75;;;;;;;14.21;82.35;100594.13;5136278;27;20043;-76
2021/08/09 03:14:50;;;;;;;4.88;1.90;;;;;;;14.12;83.21;100573.63;5142741;27;20047;-76
2021/08/09 03:17:16;;;;;;;5.53;2.28;;;;;;;14.18;83.03;100592.50;5155742;27;20035;-75
2021/08/09 03:19:43;;;;;;;7.07;2.10;;;;;;;14.16;82.90;100590.88;5142278;27;20023;-75
2021/08/09 03:22:12;;;;;;;8.70;2.33;;;;;;;14.08;83.64;100588.69;5141987;27;20051;-75
2021/08/09 03:24:39;;;;;;;7.28;2.33;;;;;;;14.04;83.76;100579.31;5135069;27;20044;-75
2021/08/09 03:27:05;;;;;;;5.22;1.90;;;;;;;14.06;83.79;100585.31;5136344;27;20043;-76
2021/08/09 03:29:32;;;;;;;5.40;2.00;;;;;;;14.11;84.28;100598.19;5129161;27;20039;-76
2021/08/09 03:31:58;;;;;;;3.83;1.73;;;;;;;14.11;84.09;100585.06;5135578;27;20047;-76
2021/08/09 03:34:24;;;;;;;4.38;1.77;;;;;;;14.17;84.04;100589.97;5134619;27;20078;-75
2021/08/09 03:36:52;;;;;;;6.20;2.17;;;;;;;14.04;83.88;100587.19;5135840;27;20058;-76
2021/08/09 03:39:19;;;;;;;4.10;1.63;;;;;;;13.99;84.12;100578.69;5134402;27;20095;-76
2021/08/09 03:41:46;;;;;;;4.30;1.70;;;;;;;14.12;84.02;100595.47;5135746;27;20047;-76
2021/08/09 03:44:13;;;;;;;3.35;1.75;;;;;;;14.10;84.31;100589.47;5134850;27;20043;-76
2021/08/09 03:46:39;;;;;;;5.38;1.70;;;;;;;14.14;84.20;100598.03;5134086;27;20050;-75
2021/08/09 03:49:09;;;;;;;3.72;1.98;;;;;;;14.12;84.58;100599.88;5134771;27;20126;-76
2021/08/09 03:51:40;;;;;;;3.67;1.73;;;;;;;14.13;84.47;100588.44;5135600;27;20043;-76
2021/08/09 03:54:09;;;;;;;3.15;1.63;;;;;;;14.14;84.05;100598.03;5133913;27;20035;-76
2021/08/09 03:56:35;;;;;;;5.75;1.40;;;;;;;14.16;84.15;100591.75;5133418;27;20050;-76
2021/08/09 03:59:01;;;;;;;5.03;1.70;;;;;;;13.89;84.08;100542.47;5126970;27;20043;-76
2021/08/09 04:01:27;;;;;;;4.20;1.90;;;;;;;14.25;84.30;100590.41;5134900;27;20065;-77
2021/08/09 04:03:54;;;;;;;4.03;1.65;;;;;;;14.19;84.16;100588.94;5134636;27;20479;-77
2021/08/09 04:06:20;;;;;;;2.35;1.38;;;;;;;14.27;83.93;100592.94;5134681;27;20075;-76
2021/08/09 04:08:48;;;;;;;3.60;1.50;;;;;;;14.24;83.96;100588.69;5128596;27;20441;-76
2021/08/09 04:11:16;;;;;;;3.80;1.45;;;;;;;14.18;84.46;100589.03;5114568;28;20499;-76
2021/08/09 04:13:42;;;;;;;3.53;1.40;;;;;;;14.21;84.80;100597.59;5126836;27;20043;-76
2021/08/09 04:16:08;;;;;;;6.07;1.52;;;;;;;14.15;84.41;100597.94;5134576;27;20046;-76
2021/08/09 04:18:34;;;;;;;2.33;1.30;;;;;;;14.12;84.93;100597.25;5134684;27;20039;-77
2021/08/09 04:21:00;;;;;;;4.28;1.20;;;;;;;14.15;85.07;100602.34;5135049;27;20383;-76
2021/08/09 04:23:28;;;;;;;4.22;1.40;;;;;;;14.23;85.30;100608.00;5133678;27;20490;-76
2021/08/09 04:25:54;;;;;;;4.32;1.40;;;;;;;14.17;84.63;100598.72;5133177;27;20046;-76
2021/08/09 04:28:20;;;;;;;3.30;1.40;;;;;;;14.10;84.76;100578.97;5129589;27;20039;-76
2021/08/09 04:30:46;;;;;;;2.38;1.40;;;;;;;14.03;85.20;100578.44;5134553;27;20471;-76
2021/08/09 04:33:12;;;;;;;3.95;1.45;;;;;;;14.12;85.42;100594.63;5134356;27;20043;-75
2021/08/09 04:35:38;;;;;;;4.47;1.40;;;;;;;14.07;85.21;100584.38;5134397;27;20533;-75
2021/08/09 04:38:05;;;;;;;3.50;1.00;;;;;;;14.16;85.00;100594.38;5114757;28;20057;-76
2021/08/09 04:40:31;;;;;;;2.65;1.17;;;;;;;14.15;85.10;100590.06;5121717;27;20492;-76
2021/08/09 04:42:58;;;;;;;5.40;1.70;;;;;;;14.18;85.36;100594.28;5150442;27;20043;-74
2021/08/09 04:45:25;;;;;;;3.75;1.48;;;;;;;14.19;85.21;100588.94;5152809;27;20039;-76
2021/08/09 04:47:51;;;;;;;2.63;1.40;;;;;;;14.25;85.26;100600.91;5134007;27;20043;-76
2021/08/09 04:50:17;;;;;;;3.22;1.40;;;;;;;14.23;85.06;100593.13;5134285;27;20498;-76
2021/08/09 04:52:43;;;;;;;4.63;1.30;;;;;;;14.25;85.03;100595.66;5134698;27;20040;-76
2021/08/09 04:55:10;;;;;;;3.13;1.60;;;;;;;14.36;84.82;100611.66;5134750;27;20047;-76
2021/08/09 04:57:37;;;;;;;2.80;1.40;;;;;;;14.42;84.02;100607.84;5133805;27;20491;-76
2021/08/09 05:00:05;;;;;;;2.97;1.38;;;;;;;14.41;84.42;100598.25;5134698;27;20064;-77
2021/08/09 05:02:31;;;;;;;3.53;1.30;;;;;;;14.38;84.16;100596.66;5134004;27;20039;-75
2021/08/09 05:04:59;;;;;;;2.97;1.33;;;;;;;14.32;84.08;100601.41;5134343;27;20066;-76
2021/08/09 05:07:26;;;;;;;3.08;1.40;;;;;;;14.40;84.56;100613.19;5134034;27;20054;-76
2021/08/09 05:09:52;;;;;;;2.83;1.30;;;;;;;14.38;84.12;100606.34;5132411;27;20043;-76
2021/08/09 05:12:18;;;;;;;2.92;1.30;;;;;;;14.49;84.05;100617.06;5122838;27;20138;-76
2021/08/09 05:14:43;;;;;;;4.18;1.60;;;;;;;14.58;84.03;100608.66;5134072;28;20043;-76
2021/08/09 05:17:11;;;;;;;3.53;1.48;;;;;;;14.61;83.78;100618.19;5133269;27;20104;-76
2021/08/09 05:19:37;;;;;;;3.55;1.65;;;;;;;14.57;83.89;100612.25;5133936;27;20436;-77
2021/08/09 05:22:03;;;;;;;3.38;1.55;;;;;;;14.56;83.98;100614.94;5133630;28;20092;-76
2021/08/09 05:24:30;;;;;;;2.70;1.45;;;;;;;14.50;83.75;100621.41;5133433;27;20510;-76
2021/08/09 05:26:57;;;;;;;3.70;1.70;;;;;;;14.50;84.10;100623.16;5133066;27;20051;-76
2021/08/09 05:29:23;;;;;;;4.18;1.88;;;;;;;14.56;84.38;100630.69;5134176;27;20096;-77
2021/08/09 05:31:49;;;;;;;4.07;1.63;;;;;;;14.53;83.08;100613.34;5123198;27;20047;-76
2021/08/09 05:34:15;;;;;;;4.95;1.90;;;;;;;14.62;83.41;100626.88;5113426;28;20488;-76
2021/08/09 05:36:43;;;;;;;3.75;1.75;;;;;;;14.59;83.08;100630.53;5124520;27;20082;-77
2021/08/09 05:39:09;;;;;;;4.28;1.80;;;;;;;14.58;83.36;100624.41;5138132;27;20395;-76
2021/08/09 05:41:36;;;;;;;6.05;1.90;;;;;;;14.64;83.89;100625.88;5136382;27;20043;-76
2021/08/09 05:44:02;;;;;;;4.55;2.22;;;;;;;14.66;83.38;100629.28;5137170;27;20039;-76
2021/08/09 05:46:30;;;;;;;3.90;1.52;;;;;;;14.62;83.32;100646.09;5137880;27;20044;-76
2021/08/09 05:48:56;;;;;;;4.28;2.10;;;;;;;14.64;83.98;100646.88;5131831;27;20046;-76
2021/08/09 05:51:22;;;;;;;4.65;2.17;;;;;;;14.62;84.68;100653.16;5137243;27;20039;-76
2021/08/09 05:53:48;;;;;;;3.08;1.50;;;;;;;14.44;84.08;100640.13;5136992;27;20050;-76
2021/08/09 05:56:14;;;;;;;3.75;1.70;;;;;;;14.43;85.00;100662.06;5137836;27;20495;-75
2021/08/09 05:58:40;;;;;;;3.42;1.60;;;;;;;14.14;84.35;100640.03;5136534;27;20043;-76
2021/08/09 06:01:06;;;;;;;2.92;1.50;;;;;;;14.12;84.86;100647.13;5136920;27;20046;-76
2021/08/09 06:03:35;;;;;;;3.78;1.92;;;;;;;14.12;84.74;100650.59;5137437;27;20045;-76
2021/08/09 06:06:01;;;;;;;5.20;1.98;;;;;;;14.04;84.31;100661.50;5138110;27;20043;-75
2021/08/09 06:08:27;;;;;;;4.05;1.80;;;;;;;13.95;84.69;100635.75;5137351;27;20543;-75
2021/08/09 06:10:53;;;;;;;3.83;2.00;;;;;;;14.03;85.19;100664.22;5137373;27;20088;-75
2021/08/09 06:13:19;;;;;;;3.17;1.60;;;;;;;14.00;84.85;100657.38;5136806;27;20039;-76
2021/08/09 06:15:45;;;;;;;3.28;1.83;;;;;;;13.96;84.54;100641.84;5135941;27;20100;-75
2021/08/09 06:18:11;;;;;;;5.88;1.98;;;;;;;14.01;83.35;100666.94;5137511;27;20467;-76
2021/08/09 06:20:38;;;;;;;3.85;1.83;;;;;;;14.11;84.10;100662.03;5119036;27;20407;-75
2021/08/09 06:23:04;;;;;;;4.65;2.00;;;;;;;13.97;83.43;100638.31;5135349;27;20043;-74
2021/08/09 06:25:31;;;;;;;5.10;2.00;;;;;;;14.01;83.90;100664.31;5137804;27;20039;-76
2021/08/09 06:27:57;;;;;;;4.57;1.73;;;;;;;13.94;84.03;100657.69;5136900;27;20043;-75
2021/08/09 06:30:23;;;;;;;4.35;2.10;;;;;;;14.02;84.68;100662.53;5137169;27;20050;-75
2021/08/09 06:32:50;;;;;;;4.30;1.67;;;;;;;13.99;83.88;100666.16;5136676;27;20039;-76
2021/08/09 06:35:16;;;;;;;6.40;2.10;;;;;;;14.01;84.56;100666.06;5137153;27;20039;-75
2021/08/09 06:37:42;;;;;;;3.90;1.80;;;;;;;13.98;84.83;100677.59;5135453;27;20051;-76
2021/08/09 06:40:09;;;;;;;4.13;2.05;;;;;;;13.93;84.95;100672.56;5135971;27;20043;-76
2021/08/09 06:42:35;;;;;;;4.47;1.80;;;;;;;14.00;84.92;100674.88;5135188;27;20047;-75
2021/08/09 06:45:01;;;;;;;5.65;1.70;;;;;;;13.96;84.92;100674.19;5136428;27;20043;-75
2021/08/09 06:47:27;;;;;;;3.85;1.83;;;;;;;13.86;85.10;100660.69;5135685;27;20376;-76
2021/08/09 06:49:53;;;;;;;5.85;1.70;;;;;;;14.03;85.50;100685.22;5142450;27;20092;-76
2021/08/09 06:52:20;;;;;;;4.05;1.88;;;;;;;14.00;85.40;100669.63;5137638;27;20059;-75
2021/08/09 06:54:47;;;;;;;3.90;1.65;;;;;;;14.04;85.72;100679.88;5151432;27;20054;-75
2021/08/09 06:57:13;;;;;;;3.22;1.70;;;;;;;14.14;85.41;100680.25;5156405;27;20051;-75
2021/08/09 06:59:39;;;;;;;5.38;1.95;;;;;;;14.30;84.90;100696.00;5145370;27;20043;-75
2021/08/09 07:02:07;;;;;;;4.82;1.80;;;;;;;14.31;85.18;100700.34;5136272;27;20043;-75
2021/08/09 07:04:33;;;;;;;4.95;2.30;;;;;;;14.29;84.76;100682.97;5140617;27;20458;-75
2021/08/09 07:06:59;;;;;;;4.10;1.70;;;;;;;14.54;84.29;100696.47;5137170;27;20112;-76
2021/08/09 07:09:25;;;;;;;4.45;1.95;;;;;;;14.60;83.68;100681.28;5149529;27;20043;-75
2021/08/09 07:11:51;;;;;;;4.72;1.85;;;;;;;14.86;83.40;100703.53;5152015;27;20043;-77
2021/08/09 07:14:19;;;;;;;5.13;1.77;;;;;;;14.82;83.16;100679.19;5138397;27;20136;-75
2021/08/09 07:16:45;;;;;;;4.97;1.75;;;;;;;15.08;82.88;100713.66;5136233;27;20054;-76
2021/08/09 07:19:12;;;;;;;4.50;1.70;;;;;;;15.17;82.64;100710.53;5137087;27;20047;-75
2021/08/09 07:21:38;;;;;;;4.70;1.60;;;;;;;15.19;82.51;100710.44;5136119;27;20503;-75
2021/08/09 07:24:04;;;;;;;4.32;1.77;;;;;;;15.41;82.12;100731.06;5134989;27;20047;-75
2021/08/09 07:26:31;;;;;;;3.88;1.52;;;;;;;15.51;81.68;100734.00;5135214;27;20116;-76
2021/08/09 07:28:58;;;;;;;2.78;1.33;;;;;;;15.60;81.25;100733.47;5127611;27;20098;-75
2021/08/09 07:31:25;;;;;;;3.60;1.38;;;;;;;15.66;81.06;100727.84;5120318;27;20050;-75
2021/08/09 07:33:51;;;;;;;4.90;1.40;;;;;;;15.83;80.94;100739.19;5121006;27;20035;-75
2021/08/09 07:36:17;;;;;;;3.00;1.48;;;;;;;15.95;80.82;100734.97;5135737;27;20104;-76
2021/08/09 07:38:43;;;;;;;3.53;1.67;;;;;;;16.02;79.91;100741.56;5134914;27;20084;-76
2021/08/09 07:41:10;;;;;;;4.45;2.30;;;;;;;16.17;79.33;100724.84;5121127;27;20158;-76
2021/08/09 07:43:36;;;;;;;3.58;2.10;;;;;;;16.31;79.21;100750.31;5133910;27;20043;-76
2021/08/09 07:46:02;;;;;;;6.20;2.67;;;;;;;16.46;78.82;100753.78;5135486;27;20487;-76
2021/08/09 07:48:30;;;;;;;5.45;2.47;;;;;;;16.55;78.62;100738.34;5136116;27;20043;-77
2021/08/09 07:50:56;;;;;;;5.22;2.92;;;;;;;16.75;76.99;100737.13;5134699;27;20053;-76
2021/08/09 07:53:22;;;;;;;4.93;3.00;;;;;;;16.80;75.24;100745.56;5134724;27;20119;-76
2021/08/09 07:55:48;;;;;;;6.15;2.97;;;;;;;16.86;75.35;100729.34;5135514;27;20097;-76
2021/08/09 07:58:15;;;;;;;5.53;2.92;;;;;;;16.99;74.74;100740.00;5134300;27;20047;-76
2021/08/09 08:00:41;;;;;;;4.68;3.00;;;;;;;16.91;75.28;100756.25;5135592;27;20044;-76
2021/08/09 08:03:07;;;;;;;4.90;3.10;;;;;;;16.99;74.85;100753.19;5135041;27;20088;-77
2021/08/09 08:05:34;;;;;;;3.85;2.70;;;;;;;17.14;74.66;100753.97;5134678;27;20134;-75
2021/08/09 08:08:00;;;;;;;5.57;2.90;;;;;;;16.90;74.82;100738.75;5133719;27;20043;-76
2021/08/09 08:10:27;;;;;;;6.38;3.38;;;;;;;16.88;73.41;100716.94;5124180;27;20039;-77
2021/08/09 08:12:53;;;;;;;5.32;3.55;;;;;;;17.16;72.81;100757.34;5114700;28;20100;-76
2021/08/09 08:15:19;;;;;;;5.57;3.40;;;;;;;17.28;72.49;100766.25;5114734;28;20043;-77
2021/08/09 08:17:45;;;;;;;6.72;4.60;;;;;;;17.23;72.32;100760.44;5096751;28;20077;-77
2021/08/09 08:20:11;;;;;;;5.55;4.30;;;;;;;17.36;71.36;100777.16;5114392;28;20491;-76
2021/08/09 08:22:37;;;;;;;6.93;4.05;;;;;;;17.34;71.90;100773.78;5113940;28;20059;-76
2021/08/09 08:25:04;;;;;;;5.40;3.67;;;;;;;17.47;72.17;100773.81;5120519;27;20448;-76
2021/08/09 08:27:30;;;;;;;8.13;4.18;;;;;;;17.13;72.77;100781.28;5133231;27;20094;-77
2021/08/09 08:29:56;;;;;;;5.63;3.88;;;;;;;17.42;71.15;100776.75;5134718;27;20047;-76
2021/08/09 08:32:22;;;;;;;8.00;4.10;;;;;;;17.75;70.84;100780.72;5134711;27;20103;-76
2021/08/09 08:34:49;;;;;;;4.40;3.80;;;;;;;17.89;70.66;100769.25;5134782;27;20525;-76
2021/08/09 08:37:16;;;;;;;7.65;3.70;;;;;;;17.62;69.56;100758.75;5134168;27;20039;-76
2021/08/09 08:39:42;;;;;;;4.25;3.17;;;;;;;18.06;69.37;100785.75;5134497;27;20517;-77
2021/08/09 08:42:08;;;;;;;6.30;3.28;;;;;;;18.13;68.88;100783.56;5133798;27;20042;-77
2021/08/09 08:44:34;;;;;;;7.00;3.53;;;;;;;17.92;68.59;100771.69;5134435;27;20054;-77
2021/08/09 08:47:00;;;;;;;6.15;4.18;;;;;;;17.75;69.25;100779.91;5134348;27;20055;-77
2021/08/09 08:49:27;;;;;;;6.05;4.18;;;;;;;17.56;69.84;100767.91;5134253;27;20043;-76
2021/08/09 08:51:53;;;;;;;7.78;4.20;;;;;;;17.48;69.53;100772.88;5134112;27;20047;-77
2021/08/09 08:54:19;;;;;;;6.15;3.85;;;;;;;17.80;69.75;100792.78;5134630;27;20047;-76
2021/08/09 08:56:46;;;;;;;6.10;3.78;;;;;;;18.14;67.60;100794.03;5133496;27;20487;-76
2021/08/09 08:59:18;;;;;;;7.78;3.13;;;;;;;17.86;66.39;100780.03;5134221;27;20574;-75
2021/08/09 09:01:50;;;;;;;5.00;2.78;;;;;;;17.92;66.73;100790.16;5134113;27;20129;-74
2021/08/09 09:04:23;;;;;;;4.85;2.90;;;;;;;18.27;65.87;100795.81;5134216;27;20055;-75
2021/08/09 09:07:07;;;;;;;6.90;3.42;;;;;;;18.36;66.27;100793.38;5132492;27;20047;-74
2021/08/09 09:09:39;;;;;;;4.90;3.47;;;;;;;18.16;65.47;100797.41;5133850;27;20107;-75
2021/08/09 09:12:19;;;;;;;5.22;3.67;;;;;;;18.24;65.28;100799.50;5133579;27;20051;-75
2021/08/09 09:15:01;;;;;;;4.57;2.65;;;;;;;18.01;64.28;100803.72;5134005;27;20053;-75
2021/08/09 09:17:35;;;;;;;6.55;2.58;;;;;;;18.32;63.74;100810.41;5134115;27;20043;-75
2021/08/09 09:20:23;;;;;;;5.25;2.78;;;;;;;18.65;62.78;100808.13;5133077;28;20051;-75
2021/08/09 09:22:51;;;;;;;4.57;2.50;;;;;;;18.95;62.73;100804.31;5133316;27;20043;-75
2021/08/09 09:25:30;;;;;;;6.70;2.53;;;;;;;19.11;61.46;100804.88;5133719;28;20507;-75
2021/08/09 09:27:56;;;;;;;4.22;2.33;;;;;;;19.10;61.31;100799.69;5134738;27;20388;-75
2021/08/09 09:30:29;;;;;;;5.18;2.40;;;;;;;19.32;61.42;100825.44;5135790;27;20046;-75
2021/08/09 09:32:58;;;;;;;4.57;1.98;;;;;;;19.22;59.58;100819.16;5149041;28;20058;-75
2021/08/09 09:35:24;;;;;;;4.60;2.28;;;;;;;19.38;59.70;100819.69;5155923;27;20043;-75
2021/08/09 09:37:51;;;;;;;5.57;2.60;;;;;;;19.75;58.97;100819.63;5156044;28;20483;-74
2021/08/09 09:40:20;;;;;;;4.97;2.13;;;;;;;19.72;58.07;100819.84;5122791;27;20476;-75
2021/08/09 09:42:47;;;;;;;4.10;1.80;;;;;;;19.56;59.69;100814.84;5114478;28;20048;-77
2021/08/09 09:45:19;;;;;;;6.28;1.90;;;;;;;19.35;60.44;100825.22;5129113;28;20058;-76
2021/08/09 09:47:45;;;;;;;3.65;1.63;;;;;;;19.30;59.70;100816.78;5133634;27;20043;-76
2021/08/09 09:50:30;;;;;;;4.38;1.55;;;;;;;19.08;61.40;100828.94;5132018;27;20042;-76
2021/08/09 09:53:13;;;;;;;9.02;2.70;;;;;;;18.70;65.50;100843.03;5130079;27;20039;-76
2021/08/09 09:55:42;;;;;;;6.90;2.72;;;;;;;18.22;71.98;100831.34;5133663;27;20047;-73
2021/08/09 09:58:09;;;;;;;6.15;2.10;;;;;;;17.59;72.21;100828.44;5114636;28;20092;-72
2021/08/09 10:00:35;;;;;;;4.30;1.98;;;;;;;17.47;72.00;100838.94;5135989;27;20092;-76
2021/08/09 10:03:02;;;;;;;4.40;1.73;;;;;;;17.52;71.26;100857.97;5134061;27;20100;-76
2021/08/09 10:05:30;;;;;;;3.65;1.98;;;;;;;17.53;71.17;100857.03;5131868;28;20040;-75
2021/08/09 10:07:59;;;;;;;5.50;2.10;;;;;;;17.58;72.32;100857.56;5129062;28;20525;-75
2021/08/09 10:10:26;;;;;;;3.40;1.63;;;;;;;17.73;71.73;100853.06;5132133;27;20055;-75
2021/08/09 10:12:52;;;;;;;4.60;2.08;;;;;;;17.75;71.01;100846.75;5132274;27;20512;-75
2021/08/09 10:15:20;;;;;;;3.88;1.90;;;;;;;17.98;68.03;100844.41;5133243;27;20047;-75
2021/08/09 10:17:48;;;;;;;4.40;1.88;;;;;;;18.12;66.61;100846.09;5129350;28;20052;-75
2021/08/09 10:20:17;;;;;;;3.30;1.88;;;;;;;18.28;64.42;100839.78;5126730;28;20399;-75
2021/08/09 10:22:58;;;;;;;4.53;2.25;;;;;;;18.46;64.96;100848.25;5134546;27;20138;-75
2021/08/09 10:25:50;;;;;;;3.05;1.50;;;;;;;18.63;65.54;100845.28;5134696;27;20043;-75
2021/08/09 10:28:18;;;;;;;3.80;1.80;;;;;;;18.70;66.71;100829.81;5129858;27;20039;-76
2021/08/09 10:30:57;;;;;;;5.40;2.42;;;;;;;18.82;67.47;100844.84;5135929;27;20064;-75
2021/08/09 10:33:48;;;;;;;4.20;1.90;;;;;;;18.40;65.81;100852.16;5126727;27;20518;-75
2021/08/09 10:36:23;;;;;;;3.58;1.88;;;;;;;18.72;64.92;100851.72;5136976;27;20091;-75
2021/08/09 10:38:53;;;;;;;3.78;1.65;;;;;;;18.79;64.74;100841.56;5136519;27;20036;-76
2021/08/09 10:41:34;;;;;;;6.40;2.20;;;;;;;19.12;65.38;100862.13;5136563;27;20043;-76
2021/08/09 10:44:09;;;;;;;4.45;1.92;;;;;;;19.20;65.61;100843.91;5136640;27;20054;-76
2021/08/09 10:46:43;;;;;;;3.97;2.10;;;;;;;18.97;64.93;100836.75;5135411;27;20039;-76
2021/08/09 10:49:38;;;;;;;6.00;2.17;;;;;;;18.77;65.98;100836.34;5136937;27;20039;-76
2021/08/09 10:52:05;;;;;;;5.88;2.17;;;;;;;18.66;65.22;100844.19;5136808;27;20043;-76
2021/08/09 10:54:36;;;;;;;7.95;1.80;;;;;;;18.39;64.21;100840.75;5136676;27;20047;-76
2021/08/09 10:57:04;;;;;;;4.78;2.08;;;;;;;18.64;64.53;100848.75;5137289;27;20043;-76
2021/08/09 10:59:44;;;;;;;3.65;1.75;;;;;;;19.10;63.51;100839.38;5136223;27;20043;-76
2021/08/09 11:02:35;;;;;;;3.42;1.42;;;;;;;19.43;58.79;100837.88;5135895;27;20499;-76
2021/08/09 11:05:16;;;;;;;4.13;1.67;;;;;;;19.70;57.15;100844.75;5136138;27;20040;-76
2021/08/09 11:07:45;;;;;;;4.80;1.52;;;;;;;19.51;55.25;100801.94;5135249;27;20055;-76
2021/08/09 11:10:11;;;;;;;3.00;1.70;;;;;;;19.94;54.93;100844.75;5136055;27;20040;-77
2021/08/09 11:12:59;;;;;;;2.85;1.40;;;;;;;19.90;54.59;100849.44;5135184;27;20103;-75
2021/08/09 11:15:26;;;;;;;3.20;1.33;;;;;;;19.90;54.72;100835.34;5126525;27;20430;-74
2021/08/09 11:18:02;;;;;;;2.55;1.20;;;;;;;19.96;54.80;100826.94;5135979;27;20059;-76
2021/08/09 11:20:33;;;;;;;3.97;1.42;;;;;;;20.17;53.81;100845.66;5136085;27;20051;-76
2021/08/09 11:23:09;;;;;;;3.33;1.50;;;;;;;20.00;54.91;100839.81;5135556;27;20058;-76
2021/08/09 11:25:42;;;;;;;3.08;1.50;;;;;;;20.25;53.91;100840.63;5125954;27;20460;-77
2021/08/09 11:28:18;;;;;;;3.95;1.58;;;;;;;20.24;53.86;100817.72;5125927;27;20051;-78
2021/08/09 11:30:49;;;;;;;3.97;1.80;;;;;;;20.45;53.52;100847.00;5132393;27;20047;-78